Time;durP1;ratioP1;P1;durP2;ratioP2;P2;SDS_P1;SDS_P2;PMS_P1;PMS_P2;Temp;Humidity;BMP_temperature;BMP_pressure;BME280_temperature;BME280_humidity;BME280_pressure;Samples;Min_cycle;Max_cycle;Signal;HPM_P1;HPM_P2
2023/03/03 00:58:39;;;;;;;;;;;;;;;-140.72;100.00;53125.47;5100188;27;19920;-72
2023/03/03 01:01:14;;;;;;;;;;;;;;;-140.72;100.00;53164.03;5071359;28;19921;-72
2023/03/03 01:03:40;;;;;;;;;;;;;;;-140.72;100.00;53125.47;5084046;28;19922;-72
2023/03/03 01:06:05;;;;;;;;;;;;;;;-140.72;100.00;53088.94;5089760;28;19920;-72
2023/03/03 01:11:33;;;;;;;;;;;;;;;-140.72;100.00;53117.34;5086469;28;19923;-72
2023/03/03 01:14:06;;;;;;;;;;;;;;;-140.72;100.00;53143.72;5083381;28;19917;-72
2023/03/03 01:16:32;;;;;;;;;;;;;;;-140.72;100.00;53103.16;5103676;28;19920;-72
2023/03/03 01:18:58;;;;;;;;;;;;;;;-140.72;100.00;53119.38;5086253;28;20240;-72
2023/03/03 01:21:23;;;;;;;;;;;;;;;-140.72;100.00;53093.00;5091099;28;19924;-72
2023/03/03 01:23:48;;;;;;;;;;;;;;;-140.72;100.00;53093.00;5097888;28;20282;-72
2023/03/03 01:26:14;;;;;;;;;;;;;;;-140.72;100.00;53121.41;5080774;28;19994;-72
2023/03/03 01:28:39;;;;;;;;;;;;;;;-140.72;100.00;53125.47;5088796;28;19923;-72
2023/03/03 01:31:04;;;;;;;;;;;;;;;-140.72;100.00;53141.69;5089187;28;19927;-72
2023/03/03 01:33:47;;;;;;;;;;;;;;;-140.72;100.00;53125.47;5084986;28;20070;-72
2023/03/03 01:36:12;;;;;;;;;;;;;;;-140.72;100.00;53115.31;5085133;28;20452;-72
2023/03/03 01:38:40;;;;;;;;;;;;;;;-140.72;100.00;53086.91;5071529;28;19921;-72
2023/03/03 01:41:05;;;;;;;;;;;;;;;-140.72;100.00;53095.03;5077999;28;19951;-72
2023/03/03 01:43:31;;;;;;;;;;;;;;;-140.72;100.00;53109.22;5081901;28;19939;-72
2023/03/03 01:46:06;;;;;;;;;;;;;;;-140.72;100.00;53131.56;5105355;28;19921;-72
2023/03/03 01:48:39;;;;;;;;;;;;;;;-140.72;100.00;53145.75;5090192;28;19921;-72
2023/03/03 01:51:17;;;;;;;;;;;;;;;-140.72;100.00;53082.84;5084097;28;19940;-72
2023/03/03 01:53:45;;;;;;;;;;;;;;;-140.72;100.00;53141.69;5122238;27;19916;-72
2023/03/03 01:56:10;;;;;;;;;;;;;;;-140.72;100.00;53182.28;5082164;28;19920;-72
2023/03/03 01:58:47;;;;;;;;;;;;;;;-140.72;100.00;53149.81;5090382;28;19920;-72
2023/03/03 02:01:22;;;;;;;;;;;;;;;-140.72;100.00;53115.31;5079578;28;19924;-72
2023/03/03 02:03:54;;;;;;;;;;;;;;;-140.72;100.00;53113.28;5085980;28;19917;-72
2023/03/03 02:06:22;;;;;;;;;;;;;;;-140.72;100.00;53141.69;5093930;28;19943;-73
2023/03/03 02:08:51;;;;;;;;;;;;;;;-140.72;100.00;53141.69;5085189;28;19921;-73
2023/03/03 02:11:17;;;;;;;;;;;;;;;-140.72;100.00;53123.44;5078553;28;19951;-73
2023/03/03 02:13:43;;;;;;;;;;;;;;;-140.72;100.00;53157.94;5076990;28;19990;-73
2023/03/03 02:16:19;;;;;;;;;;;;;;;-140.72;100.00;53164.03;5074151;28;19916;-73
2023/03/03 02:19:17;;;;;;;;;;;;;;;-140.72;100.00;53149.81;5078402;28;19917;-73
2023/03/03 02:24:50;;;;;;;;;;;;;;;-140.72;100.00;53143.72;5076593;28;19947;-72
2023/03/03 02:27:15;;;;;;;;;;;;;;;-140.72;100.00;53143.72;5091643;28;19916;-72
2023/03/03 02:32:43;;;;;;;;;;;;;;;-140.72;100.00;53155.91;5073918;28;19950;-73
2023/03/03 02:35:45;;;;;;;;;;;;;;;-140.72;100.00;53125.47;5067912;28;20284;-72
2023/03/03 02:41:19;;;;;;;;;;;;;;;-140.72;100.00;53151.84;5061764;28;19962;-72
2023/03/03 02:43:54;;;;;;;;;;;;;;;-140.72;100.00;53166.06;5076043;28;20003;-72
2023/03/03 02:46:40;;;;;;;;;;;;;;;-140.72;100.00;53151.84;5058064;28;19921;-72
2023/03/03 02:49:07;;;;;;;;;;;;;;;-140.72;100.00;53186.34;5069322;28;19920;-72
2023/03/03 02:51:32;;;;;;;;;;;;;;;-140.72;100.00;53166.06;5072329;28;20004;-72
2023/03/03 02:53:57;;;;;;;;;;;;;;;-140.72;100.00;53127.50;5074483;28;19962;-72
2023/03/03 02:56:22;;;;;;;;;;;;;;;-140.72;100.00;53157.94;5069658;28;19921;-73
2023/03/03 02:58:48;;;;;;;;;;;;;;;-140.72;100.00;53170.13;5061160;28;20314;-73
2023/03/03 03:01:13;;;;;;;;;;;;;;;-140.72;100.00;53123.44;5075777;28;19940;-72
2023/03/03 03:03:47;;;;;;;;;;;;;;;-140.72;100.00;53117.34;5075282;28;19916;-72
2023/03/03 03:06:12;;;;;;;;;;;;;;;-140.72;100.00;53141.69;5062481;28;20263;-72
2023/03/03 03:08:38;;;;;;;;;;;;;;;-140.72;100.00;53153.88;5068870;28;19917;-72
2023/03/03 03:11:28;;;;;;;;;;;;;;;-140.72;100.00;53082.84;5074903;28;20329;-73
2023/03/03 03:13:53;;;;;;;;;;;;;;;-140.72;100.00;53121.41;5083234;28;20383;-72
2023/03/03 03:19:28;;;;;;;;;;;;;;;-140.72;100.00;53121.41;5069580;28;19923;-72
2023/03/03 03:21:53;;;;;;;;;;;;;;;-140.72;100.00;53139.69;5070027;28;19923;-72
2023/03/03 03:24:18;;;;;;;;;;;;;;;-140.72;100.00;53105.19;5069938;28;19921;-72
2023/03/03 03:26:44;;;;;;;;;;;;;;;-140.72;100.00;53133.59;5062710;28;19940;-72
2023/03/03 03:29:09;;;;;;;;;;;;;;;-140.72;100.00;53117.34;5077813;28;19964;-72
2023/03/03 03:31:35;;;;;;;;;;;;;;;-140.72;100.00;53076.75;5071752;28;19916;-72
2023/03/03 03:37:03;;;;;;;;;;;;;;;-140.72;100.00;53121.41;5065398;28;19955;-72
2023/03/03 03:39:28;;;;;;;;;;;;;;;-140.72;100.00;53105.19;5074980;28;19948;-73
2023/03/03 03:45:08;;;;;;;;;;;;;;;-140.72;100.00;53088.94;5074642;28;20329;-73
2023/03/03 03:47:33;;;;;;;;;;;;;;;-140.72;100.00;53111.25;5106016;28;20032;-72
2023/03/03 03:49:58;;;;;;;;;;;;;;;-140.72;100.00;53093.00;5057087;28;19948;-72
2023/03/03 03:52:24;;;;;;;;;;;;;;;-140.72;100.00;53141.69;5071059;28;19916;-72
2023/03/03 03:57:42;;;;;;;;;;;;;;;-140.72;100.00;53105.19;5065921;28;19931;-72
2023/03/03 04:00:08;;;;;;;;;;;;;;;-140.72;100.00;53117.34;5075068;28;19920;-72
2023/03/03 04:02:34;;;;;;;;;;;;;;;-140.72;100.00;53111.25;5074972;28;20259;-72
2023/03/03 04:04:59;;;;;;;;;;;;;;;-140.72;100.00;53107.19;5074898;28;19924;-72
2023/03/03 04:07:25;;;;;;;;;;;;;;;-140.72;100.00;53099.09;5067359;28;19924;-72
2023/03/03 04:09:50;;;;;;;;;;;;;;;-140.72;100.00;53117.34;5071346;28;19920;-72
2023/03/03 04:12:15;;;;;;;;;;;;;;;-140.72;100.00;53141.69;5054951;28;19917;-72
2023/03/03 04:14:41;;;;;;;;;;;;;;;-140.72;100.00;53121.41;5072373;28;20379;-72
2023/03/03 04:17:06;;;;;;;;;;;;;;;-140.72;100.00;53097.06;5074408;28;19966;-72
2023/03/03 04:19:31;;;;;;;;;;;;;;;-140.72;100.00;53139.69;5063748;28;19921;-72
2023/03/03 04:21:56;;;;;;;;;;;;;;;-140.72;100.00;53129.53;5075285;28;19966;-73
2023/03/03 04:24:21;;;;;;;;;;;;;;;-140.72;100.00;53111.25;5084524;28;19916;-72
2023/03/03 04:29:49;;;;;;;;;;;;;;;-140.72;100.00;53093.00;5072865;28;19968;-72
2023/03/03 04:32:17;;;;;;;;;;;;;;;-140.72;100.00;53131.56;5094483;28;19916;-73
2023/03/03 04:34:42;;;;;;;;;;;;;;;-140.72;100.00;53086.91;5093614;28;20460;-72
2023/03/03 04:37:07;;;;;;;;;;;;;;;-140.72;100.00;53137.66;5065047;28;19921;-72
2023/03/03 04:39:33;;;;;;;;;;;;;;;-140.72;100.00;53125.47;5068970;28;19917;-72
2023/03/03 04:41:58;;;;;;;;;;;;;;;-140.72;100.00;53105.19;5073018;28;19916;-72
2023/03/03 04:44:23;;;;;;;;;;;;;;;-140.72;100.00;53109.22;5059076;28;20042;-72
2023/03/03 04:46:48;;;;;;;;;;;;;;;-140.72;100.00;53117.34;5062908;28;20054;-72
2023/03/03 04:49:14;;;;;;;;;;;;;;;-140.72;100.00;53111.25;5078743;28;19916;-72
2023/03/03 04:51:39;;;;;;;;;;;;;;;-140.72;100.00;53103.16;5074413;28;20019;-72
2023/03/03 04:54:04;;;;;;;;;;;;;;;-140.72;100.00;53143.72;5059386;28;20375;-73
2023/03/03 04:56:30;;;;;;;;;;;;;;;-140.72;100.00;53074.72;5063945;28;19924;-72
2023/03/03 04:59:24;;;;;;;;;;;;;;;-140.72;100.00;53093.00;5074242;28;19963;-72
2023/03/03 05:01:49;;;;;;;;;;;;;;;-140.72;100.00;53121.41;5063239;28;19917;-72
2023/03/03 05:04:15;;;;;;;;;;;;;;;-140.72;100.00;53133.59;5074107;28;19923;-72
2023/03/03 05:07:00;;;;;;;;;;;;;;;-140.72;100.00;53093.00;5061519;28;20303;-72
2023/03/03 05:09:26;;;;;;;;;;;;;;;-140.72;100.00;53125.47;5063437;28;19932;-74
2023/03/03 05:11:51;;;;;;;;;;;;;;;-140.72;100.00;53109.22;5105045;28;20294;-73
2023/03/03 05:14:16;;;;;;;;;;;;;;;-140.72;100.00;53143.72;5064849;28;19966;-74
2023/03/03 05:16:41;;;;;;;;;;;;;;;-140.72;100.00;53097.06;5058874;28;19924;-73
2023/03/03 05:19:07;;;;;;;;;;;;;;;-140.72;100.00;53107.19;5062789;28;20431;-73
2023/03/03 05:21:32;;;;;;;;;;;;;;;-140.72;100.00;53113.28;5068266;28;19921;-74
2023/03/03 05:23:58;;;;;;;;;;;;;;;-140.72;100.00;53093.00;5074663;28;19916;-73
2023/03/03 05:26:23;;;;;;;;;;;;;;;-140.72;100.00;53095.03;5086739;28;19924;-73
2023/03/03 05:29:06;;;;;;;;;;;;;;;-140.72;100.00;53113.28;5066760;28;19927;-72
2023/03/03 05:34:34;;;;;;;;;;;;;;;-140.72;100.00;53076.75;5069468;28;19919;-74
2023/03/03 05:36:59;;;;;;;;;;;;;;;-140.72;100.00;53113.28;5071660;28;19924;-73
2023/03/03 05:45:30;;;;;;;;;;;;;;;-140.72;100.00;53119.38;5071043;28;20431;-72
2023/03/03 05:47:55;;;;;;;;;;;;;;;-140.72;100.00;53095.03;5067549;28;20007;-73
2023/03/03 05:50:21;;;;;;;;;;;;;;;-140.72;100.00;53103.16;5077326;28;19916;-72
2023/03/03 05:52:48;;;;;;;;;;;;;;;-140.72;100.00;53086.91;5081277;28;20363;-72
2023/03/03 05:55:13;;;;;;;;;;;;;;;-140.72;100.00;53129.53;5067283;28;19920;-73
2023/03/03 05:57:38;;;;;;;;;;;;;;;-140.72;100.00;53084.88;5072065;28;19943;-73
2023/03/03 06:00:04;;;;;;;;;;;;;;;-140.72;100.00;53115.31;5073493;28;20261;-73
2023/03/03 06:02:30;;;;;;;;;;;;;;;-140.72;100.00;53076.75;5077020;28;19920;-72
2023/03/03 06:04:55;;;;;;;;;;;;;;;-140.72;100.00;53088.94;5062516;28;20323;-72
2023/03/03 06:07:21;;;;;;;;;;;;;;;-140.72;100.00;53088.94;5076499;28;19978;-72
2023/03/03 06:09:53;;;;;;;;;;;;;;;-140.72;100.00;53068.66;5072122;28;19923;-72
2023/03/03 06:12:42;;;;;;;;;;;;;;;-140.72;100.00;53095.03;5072748;28;19920;-73
2023/03/03 06:15:08;;;;;;;;;;;;;;;-140.72;100.00;53095.03;5069547;28;19938;-73
2023/03/03 06:17:33;;;;;;;;;;;;;;;-140.72;100.00;53149.81;5072355;28;19970;-72
2023/03/03 06:19:58;;;;;;;;;;;;;;;-140.72;100.00;53123.44;5072243;28;19917;-72
2023/03/03 06:22:27;;;;;;;;;;;;;;;-140.72;100.00;53070.69;5075042;28;19916;-72
2023/03/03 06:24:52;;;;;;;;;;;;;;;-140.72;100.00;53064.59;5106536;27;19920;-72
2023/03/03 06:27:17;;;;;;;;;;;;;;;-140.72;100.00;53078.78;5073747;28;19920;-72
2023/03/03 06:29:43;;;;;;;;;;;;;;;-140.72;100.00;53121.41;5081634;28;19956;-73
2023/03/03 06:32:09;;;;;;;;;;;;;;;-140.72;100.00;53105.19;5075043;28;19924;-75
2023/03/03 06:34:34;;;;;;;;;;;;;;;-140.72;100.00;53121.41;5071217;28;19917;-72
2023/03/03 06:36:59;;;;;;;;;;;;;;;-140.72;100.00;53084.88;5072413;28;19920;-72
2023/03/03 06:39:25;;;;;;;;;;;;;;;-140.72;100.00;53097.06;5075129;28;20013;-72
2023/03/03 06:41:50;;;;;;;;;;;;;;;-140.72;100.00;53082.84;5074146;28;19942;-72
2023/03/03 06:44:15;;;;;;;;;;;;;;;-140.72;100.00;53145.75;5074968;28;19924;-72
2023/03/03 06:46:41;;;;;;;;;;;;;;;-140.72;100.00;53090.97;5063655;28;19924;-72
2023/03/03 06:49:06;;;;;;;;;;;;;;;-140.72;100.00;53105.19;5076751;28;19917;-72
2023/03/03 06:51:33;;;;;;;;;;;;;;;-140.72;100.00;53084.88;5087908;28;19923;-72
2023/03/03 06:54:01;;;;;;;;;;;;;;;-140.72;100.00;53080.81;5073401;28;19917;-71
2023/03/03 06:56:27;;;;;;;;;;;;;;;-140.72;100.00;53119.38;5072499;28;20329;-71
2023/03/03 06:58:53;;;;;;;;;;;;;;;-140.72;100.00;53064.59;5075224;28;20330;-72
2023/03/03 07:01:18;;;;;;;;;;;;;;;-140.72;100.00;53131.56;5074987;28;19923;-71
2023/03/03 07:03:44;;;;;;;;;;;;;;;-140.72;100.00;53076.75;5068425;28;19921;-73
2023/03/03 07:06:21;;;;;;;;;;;;;;;-140.72;100.00;53115.31;5069396;28;19917;-72
2023/03/03 07:08:46;;;;;;;;;;;;;;;-140.72;100.00;53095.03;5104229;28;19966;-71
2023/03/03 07:11:15;;;;;;;;;;;;;;;-140.72;100.00;53103.16;5074484;28;20333;-71
2023/03/03 07:16:43;;;;;;;;;;;;;;;-140.72;100.00;53084.88;5063390;28;20456;-71
2023/03/03 07:19:29;;;;;;;;;;;;;;;-140.72;100.00;53117.34;5056768;28;19956;-71
2023/03/03 07:21:54;;;;;;;;;;;;;;;-140.72;100.00;53080.81;5068535;28;19916;-71
2023/03/03 07:24:22;;;;;;;;;;;;;;;-140.72;100.00;53068.66;5064400;28;19930;-71
2023/03/03 07:26:47;;;;;;;;;;;;;;;-140.72;100.00;53070.69;5074563;28;19943;-71
2023/03/03 07:29:13;;;;;;;;;;;;;;;-140.72;100.00;53113.28;5069889;28;20385;-71
2023/03/03 07:31:39;;;;;;;;;;;;;;;-140.72;100.00;53088.94;5067620;28;20371;-71
2023/03/03 07:34:18;;;;;;;;;;;;;;;-140.72;100.00;53062.56;5075458;28;19917;-71
2023/03/03 07:36:44;;;;;;;;;;;;;;;-140.72;100.00;53050.38;5073365;28;19924;-71
2023/03/03 07:39:31;;;;;;;;;;;;;;;-140.72;100.00;53072.69;5072569;28;19952;-71
2023/03/03 07:42:19;;;;;;;;;;;;;;;-140.72;100.00;53078.78;5066844;28;19928;-71
2023/03/03 07:44:47;;;;;;;;;;;;;;;-140.72;100.00;53099.09;5063823;28;19935;-71
2023/03/03 07:47:21;;;;;;;;;;;;;;;-140.72;100.00;53080.81;5061633;28;19924;-71
2023/03/03 07:49:48;;;;;;;;;;;;;;;-140.72;100.00;53056.47;5065275;28;19924;-71
2023/03/03 07:52:16;;;;;;;;;;;;;;;-140.72;100.00;53095.03;5090643;28;19917;-71
2023/03/03 07:54:44;;;;;;;;;;;;;;;-140.72;100.00;53080.81;5106341;27;19927;-71
2023/03/03 07:57:25;;;;;;;;;;;;;;;-140.72;100.00;53058.50;5073729;28;19921;-71
2023/03/03 07:59:50;;;;;;;;;;;;;;;-140.72;100.00;53101.13;5080051;28;19931;-71
2023/03/03 08:02:35;;;;;;;;;;;;;;;-140.72;100.00;53064.59;5069038;28;19916;-73
2023/03/03 08:08:02;;;;;;;;;;;;;;;-140.72;100.00;53064.59;5072929;28;19920;-71
2023/03/03 08:10:27;;;;;;;;;;;;;;;-140.72;100.00;53044.28;5072278;28;20685;-72
2023/03/03 08:12:53;;;;;;;;;;;;;;;-140.72;100.00;53038.19;5074471;28;19924;-71
2023/03/03 08:15:29;;;;;;;;;;;;;;;-140.72;100.00;53084.88;5071808;28;19932;-72
2023/03/03 08:17:55;;;;;;;;;;;;;;;-140.72;100.00;53036.16;5073416;28;19962;-72
2023/03/03 08:20:40;;;;;;;;;;;;;;;-140.72;100.00;53056.47;5074619;28;19974;-72
2023/03/03 08:23:05;;;;;;;;;;;;;;;-140.72;100.00;53078.78;5073586;28;19928;-73
2023/03/03 08:25:30;;;;;;;;;;;;;;;-140.72;100.00;53044.28;5072552;28;19920;-72
2023/03/03 08:27:56;;;;;;;;;;;;;;;-140.72;100.00;53050.38;5080594;28;19917;-73
2023/03/03 08:30:21;;;;;;;;;;;;;;;-140.72;100.00;53036.16;5061995;28;19926;-73
2023/03/03 08:32:46;;;;;;;;;;;;;;;-140.72;100.00;53056.47;5070559;28;20311;-72
2023/03/03 08:35:11;;;;;;;;;;;;;;;-140.72;100.00;53042.25;5059349;28;20379;-72
2023/03/03 08:37:37;;;;;;;;;;;;;;;-140.72;100.00;53064.59;5091471;28;19916;-71
2023/03/03 08:40:02;;;;;;;;;;;;;;;-140.72;100.00;53040.22;5063836;28;19917;-71
2023/03/03 08:42:28;;;;;;;;;;;;;;;-140.72;100.00;53026.03;5069928;28;19924;-71
2023/03/03 08:44:54;;;;;;;;;;;;;;;-140.72;100.00;53048.34;5073290;28;19920;-71
2023/03/03 08:47:19;;;;;;;;;;;;;;;-140.72;100.00;53048.34;5087534;28;20026;-73
2023/03/03 08:49:44;;;;;;;;;;;;;;;-140.72;100.00;53013.84;5073295;28;19960;-72
2023/03/03 08:52:09;;;;;;;;;;;;;;;-140.72;100.00;53044.28;5071792;28;19976;-72
2023/03/03 08:54:35;;;;;;;;;;;;;;;-140.72;100.00;53021.97;5072639;28;20323;-72
2023/03/03 08:57:00;;;;;;;;;;;;;;;-140.72;100.00;52979.34;5067941;28;20470;-72
2023/03/03 08:59:25;;;;;;;;;;;;;;;-140.72;100.00;52991.53;5098183;28;19960;-72
2023/03/03 09:01:51;;;;;;;;;;;;;;;-140.72;100.00;53032.13;5105413;28;19973;-72
2023/03/03 09:04:16;;;;;;;;;;;;;;;-140.72;100.00;53038.19;5072742;28;19966;-72
2023/03/03 09:06:41;;;;;;;;;;;;;;;-140.72;100.00;53001.66;5080221;28;20271;-72
2023/03/03 09:09:06;;;;;;;;;;;;;;;-140.72;100.00;53017.91;5065533;28;19931;-72
2023/03/03 09:11:32;;;;;;;;;;;;;;;-140.72;100.00;52995.59;5098235;28;19948;-72
2023/03/03 09:14:00;;;;;;;;;;;;;;;-140.72;100.00;52961.09;5098907;28;19923;-72
2023/03/03 09:16:26;;;;;;;;;;;;;;;-140.72;100.00;53028.06;5103456;28;20406;-72
2023/03/03 09:18:51;;;;;;;;;;;;;;;-140.72;100.00;53011.81;5071011;28;20012;-72
2023/03/03 09:21:25;;;;;;;;;;;;;;;-140.72;100.00;52995.59;5074765;28;19928;-73
2023/03/03 09:23:56;;;;;;;;;;;;;;;-140.72;100.00;53009.78;5075843;28;19921;-73
2023/03/03 09:26:40;;;;;;;;;;;;;;;-140.72;100.00;53011.81;5073632;28;19916;-72
2023/03/03 09:29:15;;;;;;;;;;;;;;;-140.72;100.00;53040.22;5075005;28;19991;-73
2023/03/03 09:31:53;;;;;;;;;;;;;;;-140.72;100.00;52987.47;5104411;28;19928;-73
2023/03/03 09:34:22;;;;;;;;;;;;;;;-140.72;100.00;53007.75;5075101;28;19916;-72
2023/03/03 09:36:48;;;;;;;;;;;;;;;-140.72;100.00;52995.59;5072965;28;19938;-72
2023/03/03 09:39:17;;;;;;;;;;;;;;;-140.72;100.00;53019.94;5070471;28;19916;-72
2023/03/03 09:41:58;;;;;;;;;;;;;;;-140.72;100.00;52959.06;5075903;28;19970;-72
2023/03/03 09:44:42;;;;;;;;;;;;;;;-140.72;100.00;52989.50;5072527;28;19924;-73
2023/03/03 09:47:28;;;;;;;;;;;;;;;-140.72;100.00;52975.28;5106322;28;20371;-73
2023/03/03 09:50:12;;;;;;;;;;;;;;;-140.72;100.00;52942.81;5075616;28;20015;-72
2023/03/03 09:52:49;;;;;;;;;;;;;;;-140.72;100.00;52987.47;5101577;28;20376;-72
2023/03/03 09:55:27;;;;;;;;;;;;;;;-140.72;100.00;52997.63;5105242;28;19916;-72
2023/03/03 09:58:11;;;;;;;;;;;;;;;-140.72;100.00;52983.41;5074337;28;20352;-72
2023/03/03 10:00:42;;;;;;;;;;;;;;;-140.72;100.00;52989.50;5069247;28;19920;-72
2023/03/03 10:03:18;;;;;;;;;;;;;;;-140.72;100.00;53032.13;5069658;28;20371;-74
2023/03/03 10:06:09;;;;;;;;;;;;;;;-140.72;100.00;52991.53;5074469;28;19916;-75
2023/03/03 10:08:55;;;;;;;;;;;;;;;-140.72;100.00;52975.28;5062777;28;19921;-74
2023/03/03 10:11:40;;;;;;;;;;;;;;;-140.72;100.00;52983.41;5064952;28;19928;-75
2023/03/03 10:14:27;;;;;;;;;;;;;;;-140.72;100.00;52957.03;5074383;28;19921;-74
2023/03/03 10:17:00;;;;;;;;;;;;;;;-140.72;100.00;52995.59;5075019;28;20307;-74
2023/03/03 10:19:35;;;;;;;;;;;;;;;-140.72;100.00;52983.41;5078044;28;19916;-76
2023/03/03 10:22:23;;;;;;;;;;;;;;;-140.72;100.00;52967.16;5081348;28;19974;-77
2023/03/03 10:25:00;;;;;;;;;;;;;;;-140.72;100.00;52983.41;5056171;28;19917;-75
2023/03/03 10:27:40;;;;;;;;;;;;;;;-140.72;100.00;52983.41;5090202;28;20440;-75
2023/03/03 10:30:17;;;;;;;;;;;;;;;-140.72;100.00;52993.56;5068558;28;20390;-77
2023/03/03 10:32:44;;;;;;;;;;;;;;;-140.72;100.00;52979.34;5075366;28;20372;-75
2023/03/03 10:35:23;;;;;;;;;;;;;;;-140.72;100.00;52946.88;5063858;28;20008;-75
2023/03/03 10:37:52;;;;;;;;;;;;;;;-140.72;100.00;52934.69;5078139;28;19917;-79
2023/03/03 10:40:20;;;;;;;;;;;;;;;-140.72;100.00;52969.19;5078050;28;19917;-76
2023/03/03 10:42:58;;;;;;;;;;;;;;;-140.72;100.00;52967.16;5076761;28;19916;-77
2023/03/03 10:45:24;;;;;;;;;;;;;;;-140.72;100.00;52952.97;5066269;28;19916;-77
2023/03/03 10:48:02;;;;;;;;;;;;;;;-140.72;100.00;52936.72;5105983;28;19928;-78
2023/03/03 10:50:46;;;;;;;;;;;;;;;-140.72;100.00;52914.41;5086993;28;19923;-76
2023/03/03 10:53:26;;;;;;;;;;;;;;;-140.72;100.00;52904.25;5065339;28;20359;-77
2023/03/03 10:56:08;;;;;;;;;;;;;;;-140.72;100.00;52918.47;5074553;28;20430;-77
2023/03/03 10:58:33;;;;;;;;;;;;;;;-140.72;100.00;52922.53;5098868;28;19920;-79
2023/03/03 11:01:01;;;;;;;;;;;;;;;-140.72;100.00;52894.13;5105159;28;20011;-76
2023/03/03 11:03:36;;;;;;;;;;;;;;;-140.72;100.00;52865.69;5087145;28;19920;-77
2023/03/03 11:06:13;;;;;;;;;;;;;;;-140.72;100.00;52861.66;5106533;28;19932;-75
2023/03/03 11:08:38;;;;;;;;;;;;;;;-140.72;100.00;52837.28;5091197;28;20294;-75
2023/03/03 11:11:17;;;;;;;;;;;;;;;-140.72;97.28;52750.03;5102199;28;19923;-76
2023/03/03 11:13:43;;;;;;;;;;;;;;;-140.72;0.00;52735.81;5072089;28;19956;-76
2023/03/03 11:16:14;;;;;;;;;;;;;;;-140.72;0.00;52723.66;5106415;28;20302;-75
2023/03/03 11:19:00;;;;;;;;;;;;;;;-140.72;0.00;52599.88;5073803;28;19927;-79
2023/03/03 11:21:38;;;;;;;;;;;;;;;-140.72;0.00;52610.00;5101349;28;19973;-77
2023/03/03 11:24:04;;;;;;;;;;;;;;;-140.72;0.00;52583.63;5075852;28;19967;-77
2023/03/03 11:26:29;;;;;;;;;;;;;;;-140.72;0.00;52585.66;5071276;28;20348;-77
2023/03/03 11:28:54;;;;;;;;;;;;;;;-140.72;0.00;52536.97;5102999;28;19917;-74
2023/03/03 11:31:37;;;;;;;;;;;;;;;-140.72;0.00;52482.16;5068137;28;19927;-76
2023/03/03 11:34:05;;;;;;;;;;;;;;;-140.72;0.00;52541.03;5105422;28;19961;-75
2023/03/03 11:36:38;;;;;;;;;;;;;;;-140.72;0.00;52553.19;5069546;28;19921;-77
2023/03/03 11:39:06;;;;;;;;;;;;;;;-140.72;0.00;52553.19;5096193;28;20066;-76
2023/03/03 11:41:34;;;;;;;;;;;;;;;-140.72;0.00;52506.53;5065591;28;19928;-75
2023/03/03 11:44:08;;;;;;;;;;;;;;;-140.72;0.00;52490.28;5071355;28;20271;-75
2023/03/03 11:46:36;;;;;;;;;;;;;;;-140.72;0.00;52484.19;5069142;28;20295;-75
2023/03/03 11:49:21;;;;;;;;;;;;;;;-140.72;0.00;52467.97;5066222;28;20007;-76
2023/03/03 11:51:50;;;;;;;;;;;;;;;-140.72;0.00;52494.34;5071417;28;19925;-76
2023/03/03 11:54:28;;;;;;;;;;;;;;;-140.72;0.00;52435.50;5067626;28;19920;-76
2023/03/03 11:56:57;;;;;;;;;;;;;;;-140.72;0.00;52425.34;5072665;28;19921;-76
2023/03/03 11:59:35;;;;;;;;;;;;;;;-140.72;0.00;52431.44;5068222;28;19921;-76
2023/03/03 12:02:00;;;;;;;;;;;;;;;-140.72;0.00;52427.38;5067642;28;19928;-76
2023/03/03 12:04:29;;;;;;;;;;;;;;;-140.72;0.00;52423.31;5068004;28;20259;-76
2023/03/03 12:07:13;;;;;;;;;;;;;;;-140.72;0.00;52425.34;5102187;28;19925;-78
2023/03/03 12:09:46;;;;;;;;;;;;;;;-140.72;0.00;52386.81;5101143;28;19921;-75
2023/03/03 12:12:17;;;;;;;;;;;;;;;-140.72;0.00;52382.75;5100040;28;19916;-75
2023/03/03 12:15:09;;;;;;;;;;;;;;;-140.72;0.00;52330.00;5100256;28;19916;-75
2023/03/03 12:17:42;;;;;;;;;;;;;;;-140.72;0.00;52285.34;5058837;28;19928;-77
2023/03/03 12:20:16;;;;;;;;;;;;;;;-140.72;0.00;52445.66;5100703;28;19917;-75
2023/03/03 12:22:41;;;;;;;;;;;;;;;-140.72;0.00;52553.19;5098109;28;19917;-75
2023/03/03 12:25:25;;;;;;;;;;;;;;;-140.72;0.00;52630.31;5102100;28;20003;-75
2023/03/03 12:27:59;;;;;;;;;;;;;;;-140.72;0.00;52662.78;5067448;28;19921;-75
2023/03/03 12:30:27;;;;;;;;;;;;;;;-140.72;0.00;52711.47;5070245;28;19979;-77
2023/03/03 12:32:59;;;;;;;;;;;;;;;-140.72;0.00;52802.78;5098167;28;20726;-77
2023/03/03 12:35:30;;;;;;;;;;;;;;;-140.72;0.00;52827.16;5071422;28;20375;-77
2023/03/03 12:38:08;;;;;;;;;;;;;;;-140.72;0.00;52778.44;5089391;28;19928;-77
2023/03/03 12:40:37;;;;;;;;;;;;;;;-140.72;0.00;52800.75;5105134;27;19951;-77
2023/03/03 12:43:09;;;;;;;;;;;;;;;-140.72;0.00;52821.06;5084746;28;19917;-77
2023/03/03 12:45:46;;;;;;;;;;;;;;;-140.72;0.00;52894.13;5070733;28;19924;-77
2023/03/03 12:48:11;;;;;;;;;;;;;;;-140.72;0.00;52873.81;5071101;28;19926;-77
2023/03/03 12:50:40;;;;;;;;;;;;;;;-140.72;0.00;52853.53;5074245;28;20426;-77
2023/03/03 12:53:05;;;;;;;;;;;;;;;-140.72;0.00;52892.09;5071489;28;20341;-78
2023/03/03 12:55:48;;;;;;;;;;;;;;;-140.72;0.00;52871.78;5105003;28;19917;-76
2023/03/03 12:58:26;;;;;;;;;;;;;;;-140.72;0.00;52896.16;5106469;28;19950;-76
2023/03/03 13:00:57;;;;;;;;;;;;;;;-140.72;0.00;52900.19;5089273;28;20287;-77
2023/03/03 13:03:40;;;;;;;;;;;;;;;-140.72;0.00;52877.88;5074020;28;19924;-77
2023/03/03 13:06:14;;;;;;;;;;;;;;;-140.72;0.00;52881.94;5104412;28;20349;-76
2023/03/03 13:08:58;;;;;;;;;;;;;;;-140.72;0.00;52902.22;5071195;28;20423;-75
2023/03/03 13:11:39;;;;;;;;;;;;;;;-140.72;0.00;52644.50;5064241;28;19927;-75
2023/03/03 13:14:25;;;;;;;;;;;;;;;-140.72;0.00;52581.59;5071657;28;19983;-75
2023/03/03 13:16:53;;;;;;;;;;;;;;;-140.72;0.00;52536.97;5074569;28;20018;-76
2023/03/03 13:19:32;;;;;;;;;;;;;;;-140.72;0.00;52455.78;5087086;28;20371;-77
2023/03/03 13:22:27;;;;;;;;;;;;;;;-140.72;0.00;52453.75;5102995;28;19924;-77
2023/03/03 13:24:55;;;;;;;;;;;;;;;-140.72;0.00;52374.63;5064541;28;20260;-79
2023/03/03 13:27:24;;;;;;;;;;;;;;;-140.72;0.00;52524.78;5083363;28;20302;-73
2023/03/03 13:29:49;;;;;;;;;;;;;;;-140.72;0.00;52634.38;5068377;28;19923;-72
2023/03/03 13:32:18;;;;;;;;;;;;;;;-140.72;0.00;52656.69;5071989;28;20386;-72
2023/03/03 13:35:04;;;;;;;;;;;;;;;-140.72;0.00;52711.47;5062537;28;19925;-72
2023/03/03 13:37:34;;;;;;;;;;;;;;;-140.72;0.00;52756.13;5071954;28;19960;-74
2023/03/03 13:39:59;;;;;;;;;;;;;;;-140.72;0.00;52760.19;5071711;28;19921;-74
2023/03/03 13:42:38;;;;;;;;;;;;;;;-140.72;0.00;52748.00;5069133;28;19923;-75
2023/03/03 13:45:21;;;;;;;;;;;;;;;-140.72;0.00;52790.63;5102147;28;19921;-74
2023/03/03 13:48:05;;;;;;;;;;;;;;;-140.72;0.00;52693.22;5099152;28;19921;-75
2023/03/03 13:50:34;;;;;;;;;;;;;;;-140.72;0.00;52676.97;5069282;28;20430;-75
2023/03/03 13:53:08;;;;;;;;;;;;;;;-140.72;0.00;52666.84;5069350;28;19978;-74
2023/03/03 13:55:37;;;;;;;;;;;;;;;-140.72;0.00;52650.59;5099588;28;20882;-74
2023/03/03 13:58:13;;;;;;;;;;;;;;;-140.72;0.00;52707.41;5095834;28;19925;-72
2023/03/03 14:00:59;;;;;;;;;;;;;;;-140.72;0.00;52752.06;5098596;28;19925;-76
2023/03/03 14:03:46;;;;;;;;;;;;;;;-140.72;0.00;52723.66;5069101;28;20282;-73
2023/03/03 14:06:20;;;;;;;;;;;;;;;-140.72;0.00;52778.44;5070036;28;20365;-72
2023/03/03 14:08:45;;;;;;;;;;;;;;;-140.72;0.00;52780.47;5101891;28;19920;-74
2023/03/03 14:11:23;;;;;;;;;;;;;;;-140.72;0.00;52796.72;5105017;28;20023;-74
2023/03/03 14:13:49;;;;;;;;;;;;;;;-140.72;0.00;52780.47;5074162;28;19920;-73
2023/03/03 14:16:14;;;;;;;;;;;;;;;-140.72;0.00;52810.91;5077095;28;20849;-74
2023/03/03 14:18:56;;;;;;;;;;;;;;;-140.72;0.00;52851.50;5070229;28;19977;-73
2023/03/03 14:21:39;;;;;;;;;;;;;;;-140.72;0.00;52817.00;5070259;28;19920;-73